Time;durP1;ratioP1;P1;durP2;ratioP2;P2;SDS_P1;SDS_P2;PMS_P1;PMS_P2;Temp;Humidity;BMP_temperature;BMP_pressure;BME280_temperature;BME280_humidity;BME280_pressure;Samples;Min_cycle;Max_cycle;Signal;HPM_P1;HPM_P2
2023/06/01 00:00:49;;;;;;;77.85;34.92;;;18.90;99.90;;;;;;4942885;29;20473;-93
2023/06/01 00:03:16;;;;;;;76.72;34.85;;;18.90;99.90;;;;;;4957934;29;20515;-92
2023/06/01 00:05:43;;;;;;;79.82;35.40;;;18.80;99.90;;;;;;4958314;29;20050;-93
2023/06/01 00:08:10;;;;;;;80.38;34.58;;;18.80;99.90;;;;;;4941890;29;20520;-93
2023/06/01 00:10:36;;;;;;;84.18;34.67;;;18.80;99.90;;;;;;4941861;28;20058;-92
2023/06/01 00:13:03;;;;;;;82.18;34.92;;;18.80;99.90;;;;;;4941803;29;20051;-94
2023/06/01 00:15:30;;;;;;;83.53;36.40;;;18.80;99.90;;;;;;4957955;29;20047;-92
2023/06/01 00:18:00;;;;;;;85.35;35.10;;;18.80;99.90;;;;;;4957720;29;20038;-93
2023/06/01 00:20:28;;;;;;;86.28;36.78;;;18.80;99.90;;;;;;4941681;29;20035;-91
2023/06/01 00:22:55;;;;;;;84.47;36.55;;;18.80;99.90;;;;;;4941816;29;20027;-93
2023/06/01 00:25:22;;;;;;;94.85;37.40;;;18.90;99.90;;;;;;4957714;29;20039;-92
2023/06/01 00:27:48;;;;;;;90.68;36.95;;;18.90;99.90;;;;;;4957547;29;20031;-93
2023/06/01 00:30:14;;;;;;;91.20;35.78;;;18.80;99.90;;;;;;4957221;29;20099;-92
2023/06/01 00:32:41;;;;;;;94.82;36.45;;;18.90;99.90;;;;;;4957510;28;20042;-92
2023/06/01 00:35:08;;;;;;;88.28;34.80;;;18.80;99.90;;;;;;4942402;29;20500;-93
2023/06/01 00:37:34;;;;;;;82.72;35.00;;;18.80;99.90;;;;;;4957396;29;20381;-93
2023/06/01 00:40:01;;;;;;;80.22;35.10;;;18.80;99.90;;;;;;4957316;29;20042;-93
2023/06/01 00:42:27;;;;;;;90.80;36.60;;;18.80;99.90;;;;;;4957040;28;20023;-94
2023/06/01 00:44:54;;;;;;;82.40;34.35;;;18.80;99.90;;;;;;4957469;29;20042;-93
2023/06/01 00:47:21;;;;;;;83.68;35.00;;;18.80;99.90;;;;;;4957368;29;20032;-92
2023/06/01 00:49:47;;;;;;;76.53;33.00;;;18.70;99.90;;;;;;4957444;29;20082;-92
2023/06/01 00:52:15;;;;;;;80.10;33.72;;;18.70;99.90;;;;;;4957387;28;20476;-93
2023/06/01 00:54:41;;;;;;;80.07;33.25;;;18.60;99.90;;;;;;4946023;29;20548;-92
2023/06/01 00:57:08;;;;;;;76.10;33.65;;;18.50;99.90;;;;;;4967114;29;20034;-93
2023/06/01 00:59:36;;;;;;;82.47;35.80;;;18.50;99.90;;;;;;4938670;29;20055;-94
2023/06/01 01:02:04;;;;;;;89.10;35.22;;;18.40;99.90;;;;;;4953432;29;20044;-91
2023/06/01 01:04:30;;;;;;;81.65;33.95;;;18.50;99.90;;;;;;4933691;29;20103;-92
2023/06/01 01:07:31;;;;;;;89.43;35.70;;;18.40;99.90;;;;;;4953424;29;20031;-91
2023/06/01 01:10:07;;;;;;;84.45;34.85;;;18.40;99.90;;;;;;4937313;29;20175;-93
2023/06/01 01:12:47;;;;;;;84.53;35.33;;;18.40;99.90;;;;;;4953468;29;20404;-93
2023/06/01 01:15:26;;;;;;;90.03;36.65;;;18.40;99.90;;;;;;4953638;29;20039;-94
2023/06/01 01:18:07;;;;;;;84.82;34.03;;;18.30;99.90;;;;;;4953961;29;20030;-94
2023/06/01 01:20:41;;;;;;;82.15;33.90;;;18.30;99.90;;;;;;4953424;29;20028;-94
2023/06/01 01:23:25;;;;;;;78.70;33.80;;;18.30;99.90;;;;;;4953477;29;20031;-92
2023/06/01 01:26:23;;;;;;;76.28;32.85;;;18.20;99.90;;;;;;4937450;29;20095;-92
2023/06/01 01:29:09;;;;;;;81.57;33.35;;;18.20;99.90;;;;;;4953429;29;20159;-93
2023/06/01 01:31:38;;;;;;;84.85;31.90;;;18.20;99.90;;;;;;4937073;29;20035;-93
2023/06/01 01:34:05;;;;;;;76.78;33.22;;;18.10;99.90;;;;;;4936837;29;20039;-93
2023/06/01 01:36:32;;;;;;;82.65;35.33;;;18.10;99.90;;;;;;4934276;29;20028;-93
2023/06/01 01:38:59;;;;;;;83.70;33.50;;;18.20;99.90;;;;;;4937008;29;20502;-94
2023/06/01 01:41:29;;;;;;;76.55;31.70;;;18.20;99.90;;;;;;4937395;29;20024;-92
2023/06/01 01:43:58;;;;;;;79.13;31.50;;;18.10;99.90;;;;;;4936951;29;20118;-92
2023/06/01 01:46:42;;;;;;;81.88;32.38;;;18.10;99.90;;;;;;4936772;29;20036;-93
2023/06/01 01:49:15;;;;;;;72.00;30.08;;;18.00;99.90;;;;;;4952868;29;20031;-92
2023/06/01 01:52:06;;;;;;;116.32;32.05;;;18.00;99.90;;;;;;4937196;29;20039;-92
2023/06/01 01:54:41;;;;;;;97.28;32.22;;;17.90;99.90;;;;;;4920769;29;20047;-92
2023/06/01 01:57:08;;;;;;;86.68;30.20;;;17.80;99.90;;;;;;4936714;29;20031;-93
2023/06/01 01:59:37;;;;;;;77.97;28.52;;;17.70;99.90;;;;;;4937469;29;20421;-93
2023/06/01 02:02:03;;;;;;;71.72;30.02;;;17.70;99.90;;;;;;4952777;29;20032;-92
2023/06/01 02:04:30;;;;;;;74.72;31.10;;;17.70;99.90;;;;;;4936808;29;20465;-94
2023/06/01 02:06:59;;;;;;;82.80;28.85;;;17.70;99.90;;;;;;4952280;29;20032;-94
2023/06/01 02:09:28;;;;;;;80.68;31.38;;;17.60;99.90;;;;;;4952322;29;20083;-92
2023/06/01 02:11:56;;;;;;;75.40;28.90;;;17.60;99.90;;;;;;4952288;29;20453;-94
2023/06/01 02:14:22;;;;;;;81.40;29.20;;;17.70;99.90;;;;;;4954020;28;20047;-93
2023/06/01 02:16:50;;;;;;;84.25;29.23;;;17.70;99.90;;;;;;4940042;29;20027;-92
2023/06/01 02:19:17;;;;;;;79.13;28.42;;;17.70;99.90;;;;;;4939558;29;20508;-93
2023/06/01 02:21:45;;;;;;;89.75;30.20;;;17.70;99.90;;;;;;4940118;29;20042;-93
2023/06/01 02:24:14;;;;;;;81.25;29.75;;;17.70;99.90;;;;;;4939401;29;20552;-92
2023/06/01 02:26:40;;;;;;;75.38;28.08;;;17.70;99.90;;;;;;4939303;29;20396;-93
2023/06/01 02:29:08;;;;;;;78.07;28.52;;;17.70;99.90;;;;;;4939500;29;20035;-93
2023/06/01 02:31:35;;;;;;;76.50;28.33;;;17.70;99.90;;;;;;4939297;29;20062;-91
2023/06/01 02:34:03;;;;;;;68.28;28.30;;;17.80;99.90;;;;;;4939520;29;20512;-92
2023/06/01 02:36:31;;;;;;;71.60;27.90;;;17.80;99.90;;;;;;4936170;29;20027;-93
2023/06/01 02:38:59;;;;;;;70.47;28.20;;;17.80;99.90;;;;;;4952089;29;20031;-92
2023/06/01 02:41:26;;;;;;;65.30;25.92;;;17.80;99.90;;;;;;4936249;29;20028;-94
2023/06/01 02:43:55;;;;;;;70.03;27.48;;;17.80;99.90;;;;;;4953309;29;20132;-92
2023/06/01 02:46:22;;;;;;;70.28;27.02;;;17.80;99.90;;;;;;4948898;29;20122;-92
2023/06/01 02:48:48;;;;;;;68.93;26.08;;;17.80;99.90;;;;;;4959576;29;20055;-92
2023/06/01 02:51:16;;;;;;;78.43;26.95;;;17.90;99.90;;;;;;4939242;29;20445;-94
2023/06/01 02:53:46;;;;;;;80.72;27.48;;;17.80;99.90;;;;;;4954873;29;20050;-92
2023/06/01 02:56:14;;;;;;;63.95;25.70;;;17.90;99.90;;;;;;4926888;29;20040;-93
2023/06/01 02:59:12;;;;;;;70.88;27.73;;;17.90;99.90;;;;;;4923706;29;20474;-92
2023/06/01 03:01:45;;;;;;;85.57;28.17;;;17.90;99.90;;;;;;4920843;29;20126;-92
2023/06/01 03:04:13;;;;;;;73.75;27.17;;;17.90;99.90;;;;;;4921397;29;20032;-92
2023/06/01 03:06:40;;;;;;;79.53;28.42;;;17.90;99.90;;;;;;4935760;29;20039;-93
2023/06/01 03:09:25;;;;;;;76.70;28.63;;;17.80;99.90;;;;;;4949800;29;20051;-92
2023/06/01 03:11:56;;;;;;;79.68;27.95;;;17.90;99.90;;;;;;4936302;29;20118;-94
2023/06/01 03:14:22;;;;;;;74.72;28.17;;;17.90;99.90;;;;;;4951539;28;20492;-93
2023/06/01 03:16:49;;;;;;;81.53;28.98;;;18.00;99.90;;;;;;4926788;29;20038;-93
2023/06/01 03:19:18;;;;;;;71.65;28.73;;;18.00;99.90;;;;;;4940584;29;20039;-92
2023/06/01 03:21:48;;;;;;;83.70;30.13;;;18.00;99.90;;;;;;4954594;29;20063;-92
2023/06/01 03:24:19;;;;;;;80.00;28.60;;;18.10;99.90;;;;;;4954773;28;20074;-95
2023/06/01 03:26:45;;;;;;;92.32;29.58;;;18.20;99.90;;;;;;4956340;28;20035;-95
2023/06/01 03:29:12;;;;;;;80.88;28.67;;;18.30;99.90;;;;;;4958427;29;20484;-92
2023/06/01 03:31:39;;;;;;;76.20;27.23;;;18.30;99.90;;;;;;4958562;29;20389;-93
2023/06/01 03:34:05;;;;;;;88.20;29.25;;;18.40;99.90;;;;;;4958510;28;20079;-94
2023/06/01 03:36:32;;;;;;;74.32;27.75;;;18.40;99.90;;;;;;4958511;29;20063;-92
2023/06/01 03:39:00;;;;;;;75.93;27.92;;;18.40;99.90;;;;;;4958173;29;20027;-93
2023/06/01 03:41:28;;;;;;;75.43;27.92;;;18.40;99.90;;;;;;4958595;29;20063;-93
2023/06/01 03:43:55;;;;;;;78.80;28.13;;;18.40;99.90;;;;;;4958196;29;20030;-93
2023/06/01 03:46:22;;;;;;;68.03;27.13;;;18.30;99.90;;;;;;4958030;28;20563;-93
2023/06/01 03:48:50;;;;;;;71.80;26.45;;;18.40;99.90;;;;;;4958087;29;20034;-92
2023/06/01 03:51:18;;;;;;;75.00;26.10;;;18.40;99.90;;;;;;4957916;29;20027;-93
2023/06/01 03:53:44;;;;;;;80.18;26.92;;;18.50;99.90;;;;;;4943057;29;20019;-94
2023/06/01 03:56:12;;;;;;;124.18;30.05;;;18.50;99.90;;;;;;4942177;29;20385;-92
2023/06/01 03:58:41;;;;;;;96.97;26.33;;;18.50;99.90;;;;;;4942282;29;20434;-92
2023/06/01 04:01:11;;;;;;;104.47;27.13;;;18.60;99.90;;;;;;4942053;29;20039;-92
2023/06/01 04:03:40;;;;;;;107.10;27.77;;;18.60;99.90;;;;;;4938702;29;20083;-91
2023/06/01 04:06:11;;;;;;;142.15;27.35;;;18.70;99.90;;;;;;4938674;29;20027;-92
2023/06/01 04:08:48;;;;;;;207.13;25.23;;;18.70;99.90;;;;;;4954484;29;20106;-91
2023/06/01 04:11:16;;;;;;;281.42;29.83;;;18.70;99.90;;;;;;4938554;29;20038;-92
2023/06/01 04:13:43;;;;;;;309.90;30.33;;;18.80;99.90;;;;;;4938598;29;20059;-93
2023/06/01 04:16:11;;;;;;;200.77;26.85;;;18.80;99.90;;;;;;4938236;29;20091;-92
2023/06/01 04:18:39;;;;;;;137.13;26.90;;;18.80;99.90;;;;;;4938404;29;20540;-94
2023/06/01 04:21:09;;;;;;;177.32;29.38;;;18.80;99.90;;;;;;4956437;29;20035;-93
2023/06/01 04:23:37;;;;;;;150.90;25.17;;;19.00;99.90;;;;;;4927963;29;20082;-93
2023/06/01 04:26:04;;;;;;;146.15;24.65;;;19.00;99.90;;;;;;4938243;29;20039;-91
2023/06/01 04:28:32;;;;;;;157.07;26.20;;;19.10;99.90;;;;;;4926796;29;20062;-91
2023/06/01 04:31:00;;;;;;;131.73;23.20;;;19.10;99.90;;;;;;4941537;29;20444;-92
2023/06/01 04:33:28;;;;;;;178.93;24.02;;;19.20;99.90;;;;;;4923272;29;20024;-92
2023/06/01 04:35:55;;;;;;;166.65;23.75;;;19.20;99.90;;;;;;4923224;29;20062;-90
2023/06/01 04:38:25;;;;;;;178.40;25.92;;;19.20;99.90;;;;;;4924282;29;20020;-90
2023/06/01 04:40:53;;;;;;;128.07;24.88;;;19.20;99.90;;;;;;4934495;29;20130;-90
2023/06/01 04:43:20;;;;;;;175.00;25.55;;;19.20;99.90;;;;;;4941076;29;20059;-93
2023/06/01 04:45:49;;;;;;;162.55;23.73;;;19.30;99.90;;;;;;4922192;29;20024;-92
2023/06/01 04:48:16;;;;;;;185.10;25.75;;;19.20;99.90;;;;;;4938095;29;20055;-92
2023/06/01 04:51:09;;;;;;;119.15;25.23;;;19.30;99.90;;;;;;4937221;29;20437;-92
2023/06/01 04:53:36;;;;;;;93.38;24.33;;;19.50;99.90;;;;;;4938123;29;20043;-92
2023/06/01 04:56:03;;;;;;;134.30;24.92;;;19.60;99.90;;;;;;4938097;29;20561;-91
2023/06/01 04:58:30;;;;;;;82.57;22.88;;;19.60;99.90;;;;;;4922265;29;20043;-92
2023/06/01 05:00:57;;;;;;;174.02;24.35;;;19.70;99.90;;;;;;4938116;29;20031;-92
2023/06/01 05:03:24;;;;;;;116.78;26.65;;;19.80;99.90;;;;;;4922001;29;20027;-92
2023/06/01 05:05:51;;;;;;;181.98;28.20;;;19.80;99.90;;;;;;4937809;29;20035;-93
2023/06/01 05:08:17;;;;;;;150.82;27.65;;;19.90;99.90;;;;;;4943928;29;20496;-93
2023/06/01 05:10:45;;;;;;;111.55;28.17;;;19.90;99.90;;;;;;4922188;29;20464;-93
2023/06/01 05:13:11;;;;;;;92.60;28.33;;;20.00;99.90;;;;;;4940415;29;20392;-91
2023/06/01 05:15:39;;;;;;;83.28;25.60;;;20.10;99.90;;;;;;4957114;29;20043;-92
2023/06/01 05:18:06;;;;;;;73.88;27.17;;;20.20;99.90;;;;;;4937484;29;20027;-93
2023/06/01 05:20:32;;;;;;;77.88;27.35;;;20.20;99.90;;;;;;4956263;29;20083;-91
2023/06/01 05:23:00;;;;;;;73.95;27.42;;;20.40;99.90;;;;;;4957174;29;20027;-93
2023/06/01 05:25:27;;;;;;;68.72;26.42;;;20.30;99.90;;;;;;4956778;28;20055;-92
2023/06/01 05:27:53;;;;;;;62.83;26.77;;;20.40;99.90;;;;;;4956829;29;20031;-92
2023/06/01 05:30:20;;;;;;;58.97;24.30;;;20.60;99.90;;;;;;4940010;29;20055;-94
2023/06/01 05:32:50;;;;;;;50.83;23.45;;;20.60;99.90;;;;;;4956652;29;20035;-92
2023/06/01 05:35:19;;;;;;;48.55;23.20;;;20.60;99.90;;;;;;4956841;28;20094;-96
2023/06/01 05:37:48;;;;;;;42.13;20.35;;;20.80;99.90;;;;;;4956296;29;20023;-91
2023/06/01 05:40:16;;;;;;;41.22;20.15;;;20.80;99.90;;;;;;4955944;29;20058;-94
2023/06/01 05:42:42;;;;;;;36.35;17.98;;;20.90;99.90;;;;;;4940299;29;20514;-92
2023/06/01 05:45:10;;;;;;;36.00;17.85;;;20.90;99.90;;;;;;4940391;29;20093;-92
2023/06/01 05:47:37;;;;;;;34.85;16.73;;;21.10;99.90;;;;;;4940027;29;20544;-92
2023/06/01 05:50:05;;;;;;;37.03;18.13;;;21.10;99.90;;;;;;4939779;29;20480;-94
2023/06/01 05:52:32;;;;;;;35.53;18.08;;;21.10;99.90;;;;;;4940258;29;20039;-92
2023/06/01 05:55:01;;;;;;;33.15;18.40;;;21.30;99.90;;;;;;4940612;29;20043;-93
2023/06/01 05:57:28;;;;;;;37.03;16.85;;;21.50;99.90;;;;;;4939937;29;20019;-94
2023/06/01 05:59:55;;;;;;;25.88;15.00;;;21.60;99.90;;;;;;4939982;29;20110;-93
2023/06/01 06:02:21;;;;;;;23.52;14.07;;;22.00;99.90;;;;;;4939794;29;20030;-94
2023/06/01 06:04:48;;;;;;;24.15;14.45;;;22.40;99.90;;;;;;4939723;29;20031;-94
2023/06/01 06:07:14;;;;;;;23.48;14.75;;;22.20;99.90;;;;;;4939800;29;20114;-94
2023/06/01 06:09:41;;;;;;;20.02;14.02;;;23.00;99.90;;;;;;4939415;29;20093;-94
2023/06/01 06:12:08;;;;;;;20.02;17.98;;;24.40;99.90;;;;;;4955830;29;20027;-92
2023/06/01 06:14:34;;;;;;;21.85;19.67;;;25.60;99.90;;;;;;4939912;29;20535;-93
2023/06/01 06:17:06;;;;;;;21.38;19.33;;;26.10;99.90;;;;;;4939557;29;20034;-92
2023/06/01 06:19:32;;;;;;;20.52;18.48;;;26.40;99.90;;;;;;4937509;29;20410;-94
2023/06/01 06:21:59;;;;;;;19.52;17.80;;;26.60;99.90;;;;;;4936596;29;20024;-93
2023/06/01 06:24:37;;;;;;;19.77;17.83;;;26.70;99.90;;;;;;4952275;29;20031;-92
2023/06/01 06:27:13;;;;;;;19.25;16.80;;;26.60;99.90;;;;;;4951639;29;20051;-93
2023/06/01 06:29:46;;;;;;;19.33;17.30;;;25.90;99.90;;;;;;4943402;29;20050;-92
2023/06/01 07:52:43;;;;;;;21.42;19.92;;;28.30;99.90;;;;;;5842029;23;20764;-94
2023/06/01 07:55:17;;;;;;;21.30;20.00;;;28.90;99.90;;;;;;4980974;28;20046;-96
2023/06/01 07:57:44;;;;;;;22.02;20.58;;;28.80;99.90;;;;;;4981065;28;20034;-95
2023/06/01 08:00:17;;;;;;;23.02;21.13;;;28.60;99.90;;;;;;4981386;28;20418;-94
2023/06/01 08:02:44;;;;;;;22.63;20.65;;;28.20;99.90;;;;;;4980579;28;20154;-93
2023/06/01 08:05:11;;;;;;;22.67;20.83;;;28.00;99.90;;;;;;4985762;28;20057;-93
2023/06/01 08:07:38;;;;;;;22.95;21.02;;;28.30;99.90;;;;;;4980840;28;20030;-94
2023/06/01 08:10:06;;;;;;;22.05;20.38;;;28.20;99.90;;;;;;4980643;28;20090;-94
2023/06/01 08:12:32;;;;;;;21.63;20.23;;;28.70;99.90;;;;;;4978803;28;20054;-95
2023/06/01 08:14:59;;;;;;;21.73;20.25;;;29.00;99.90;;;;;;4961425;28;20155;-93
2023/06/01 08:17:26;;;;;;;22.15;20.50;;;28.50;99.90;;;;;;4961107;28;20066;-92
2023/06/01 08:19:53;;;;;;;22.08;20.45;;;27.90;99.90;;;;;;4960952;28;20034;-93
2023/06/01 08:22:20;;;;;;;21.83;20.15;;;28.00;99.90;;;;;;4976612;28;20049;-92
2023/06/01 08:24:47;;;;;;;23.25;21.08;;;28.30;99.90;;;;;;4979717;28;20121;-93
2023/06/01 08:27:19;;;;;;;22.88;20.90;;;27.90;99.90;;;;;;4997205;28;20030;-93
2023/06/01 08:29:50;;;;;;;22.00;20.23;;;26.90;99.90;;;;;;4976679;28;20068;-93
2023/06/01 08:32:18;;;;;;;21.77;20.15;;;26.10;99.90;;;;;;4980210;28;20052;-91
2023/06/01 08:34:46;;;;;;;21.98;20.27;;;25.60;99.90;;;;;;4958374;28;20484;-93
2023/06/01 08:37:16;;;;;;;21.40;19.75;;;26.20;99.90;;;;;;4957496;29;20035;-94
2023/06/01 08:39:42;;;;;;;20.88;19.38;;;27.00;99.90;;;;;;4957985;29;20119;-94
2023/06/01 08:42:44;;;;;;;22.15;20.50;;;27.40;99.90;;;;;;4973488;28;20130;-93
2023/06/01 08:45:13;;;;;;;21.65;20.10;;;28.00;99.90;;;;;;4979949;28;20030;-94
2023/06/01 08:47:41;;;;;;;21.42;19.88;;;27.40;99.90;;;;;;4979891;28;20026;-91
2023/06/01 08:50:11;;;;;;;21.85;20.05;;;26.70;99.90;;;;;;4979714;28;20023;-93
2023/06/01 08:52:38;;;;;;;20.95;19.23;;;27.00;99.90;;;;;;4978461;28;20031;-94
2023/06/01 08:55:05;;;;;;;21.58;20.27;;;26.90;99.90;;;;;;4976389;28;20039;-91
2023/06/01 08:57:32;;;;;;;22.15;20.75;;;27.40;99.90;;;;;;4960517;28;20034;-93
2023/06/01 08:59:59;;;;;;;23.02;21.20;;;28.50;99.90;;;;;;4976171;28;20038;-93
2023/06/01 09:02:27;;;;;;;22.38;20.77;;;28.00;99.90;;;;;;4960321;28;20196;-92
2023/06/01 09:04:54;;;;;;;22.63;21.00;;;28.00;99.90;;;;;;4995208;28;20479;-93
2023/06/01 09:07:20;;;;;;;21.48;20.08;;;28.20;99.90;;;;;;4979614;28;20033;-93
2023/06/01 09:09:47;;;;;;;22.20;20.50;;;27.60;99.90;;;;;;4979578;28;20164;-94
2023/06/01 09:12:28;;;;;;;21.50;20.08;;;28.00;99.90;;;;;;4979347;28;20029;-92
2023/06/01 09:15:22;;;;;;;22.65;20.85;;;27.80;99.90;;;;;;4956739;28;20122;-93
2023/06/01 09:17:52;;;;;;;21.50;20.20;;;28.30;99.90;;;;;;4976978;28;20019;-94
2023/06/01 09:20:31;;;;;;;22.98;21.40;;;28.40;99.90;;;;;;4976377;28;20488;-94
2023/06/01 09:22:58;;;;;;;22.92;21.23;;;28.50;99.90;;;;;;4979396;28;20045;-93
2023/06/01 09:25:35;;;;;;;21.67;20.27;;;28.30;99.90;;;;;;4979241;28;20026;-92
2023/06/01 09:28:02;;;;;;;22.10;20.60;;;28.00;99.90;;;;;;4979132;28;20027;-92
2023/06/01 09:30:40;;;;;;;21.73;20.33;;;27.30;99.90;;;;;;4979315;28;20033;-93
2023/06/01 09:33:16;;;;;;;23.30;21.15;;;27.70;99.90;;;;;;4971253;28;20075;-92
2023/06/01 09:35:49;;;;;;;22.25;20.73;;;28.00;99.90;;;;;;4960239;28;20071;-95
2023/06/01 09:38:26;;;;;;;21.50;20.17;;;28.30;99.90;;;;;;4956312;29;20058;-94
2023/06/01 09:41:02;;;;;;;22.88;21.15;;;28.20;99.90;;;;;;4956254;29;20039;-91
2023/06/01 09:43:30;;;;;;;22.27;20.48;;;28.20;99.90;;;;;;4955249;28;20045;-93
2023/06/01 09:46:08;;;;;;;21.55;20.08;;;28.00;99.90;;;;;;4978524;28;20038;-92
2023/06/01 09:48:36;;;;;;;22.00;20.42;;;27.40;99.90;;;;;;4978635;28;20117;-95
2023/06/01 09:51:03;;;;;;;22.48;20.77;;;27.10;99.90;;;;;;4978832;28;20022;-92
2023/06/01 09:53:41;;;;;;;20.88;19.38;;;26.80;99.90;;;;;;4968463;28;20471;-94
2023/06/01 09:56:07;;;;;;;21.00;19.30;;;26.80;99.90;;;;;;4972370;28;20078;-93
2023/06/01 09:58:39;;;;;;;20.30;18.80;;;26.30;99.90;;;;;;4972002;28;20034;-91
2023/06/01 10:01:08;;;;;;;20.92;19.23;;;26.30;99.90;;;;;;4972165;28;20031;-94
2023/06/01 10:03:41;;;;;;;21.42;18.90;;;26.50;99.90;;;;;;4966714;28;20057;-91
2023/06/01 10:06:12;;;;;;;20.80;19.30;;;26.40;99.90;;;;;;4976938;28;20037;-94
2023/06/01 10:08:39;;;;;;;20.63;19.17;;;25.90;99.90;;;;;;4978375;28;20861;-92
2023/06/01 10:11:08;;;;;;;20.50;19.25;;;26.60;99.90;;;;;;4978553;28;20034;-93
2023/06/01 10:13:35;;;;;;;20.75;19.15;;;27.00;99.90;;;;;;4967518;28;20063;-92
2023/06/01 10:16:03;;;;;;;20.17;18.67;;;27.10;99.90;;;;;;4971698;28;20043;-93
2023/06/01 10:18:30;;;;;;;20.65;19.25;;;26.60;99.90;;;;;;4971881;28;20059;-93
2023/06/01 10:20:57;;;;;;;21.10;19.60;;;26.40;99.90;;;;;;4973866;28;20496;-93
2023/06/01 10:23:24;;;;;;;21.35;19.67;;;26.10;99.90;;;;;;4964938;28;20070;-93
2023/06/01 10:25:53;;;;;;;19.98;18.60;;;26.10;99.90;;;;;;4971869;28;20519;-91
2023/06/01 10:28:20;;;;;;;19.85;18.48;;;26.00;99.90;;;;;;4971361;28;20031;-92
2023/06/01 10:31:24;;;;;;;19.90;18.58;;;26.30;99.90;;;;;;4971516;28;20440;-92
2023/06/01 10:33:58;;;;;;;20.27;18.98;;;26.60;99.90;;;;;;4984104;28;20534;-92
2023/06/01 10:36:51;;;;;;;20.88;19.27;;;26.40;99.90;;;;;;4978317;28;20038;-94
2023/06/01 10:39:33;;;;;;;21.58;19.75;;;25.90;99.90;;;;;;4978015;28;20026;-93
2023/06/01 10:42:12;;;;;;;20.85;19.45;;;25.50;99.90;;;;;;4978184;28;20495;-92
2023/06/01 10:44:39;;;;;;;21.13;19.48;;;25.30;99.90;;;;;;4971592;28;20066;-92
2023/06/01 10:47:20;;;;;;;21.52;19.77;;;25.20;99.90;;;;;;4940066;29;20142;-93
2023/06/01 10:49:47;;;;;;;21.92;20.10;;;24.90;99.90;;;;;;4955851;28;20112;-93
2023/06/01 10:52:30;;;;;;;21.90;20.25;;;24.70;99.90;;;;;;4939753;29;20032;-92
2023/06/01 10:55:06;;;;;;;22.90;20.80;;;24.60;99.90;;;;;;4976504;28;20042;-92
2023/06/01 10:57:34;;;;;;;21.42;19.90;;;24.60;99.90;;;;;;4977745;28;20026;-94
2023/06/01 11:00:24;;;;;;;21.27;19.80;;;24.50;99.90;;;;;;4978356;28;20073;-94
2023/06/01 11:02:53;;;;;;;22.70;21.10;;;24.50;99.90;;;;;;4976973;28;20030;-93
2023/06/01 11:05:48;;;;;;;21.77;20.13;;;24.30;99.90;;;;;;4974690;28;20031;-93
2023/06/01 11:08:21;;;;;;;22.33;20.63;;;24.10;99.90;;;;;;4974921;28;20027;-92
2023/06/01 11:10:54;;;;;;;21.70;20.20;;;24.20;99.90;;;;;;4958507;28;20039;-91
2023/06/01 11:13:27;;;;;;;20.88;19.48;;;24.10;99.90;;;;;;4985885;28;20027;-93
2023/06/01 11:16:10;;;;;;;21.15;19.50;;;24.10;99.90;;;;;;4958014;28;20488;-92
2023/06/01 11:19:00;;;;;;;21.65;19.95;;;24.00;99.90;;;;;;4974277;28;20085;-93
2023/06/01 11:21:36;;;;;;;20.90;19.25;;;24.00;99.90;;;;;;4973648;28;20031;-91
2023/06/01 11:24:18;;;;;;;20.92;19.35;;;24.10;99.90;;;;;;4984268;28;20502;-92
2023/06/01 11:26:49;;;;;;;21.30;19.90;;;24.00;99.90;;;;;;4977497;28;20117;-92
2023/06/01 11:29:25;;;;;;;20.73;19.23;;;24.00;99.90;;;;;;4977393;28;20038;-93
2023/06/01 11:31:56;;;;;;;21.50;19.77;;;24.00;99.90;;;;;;4978027;28;20081;-93
2023/06/01 11:34:38;;;;;;;19.92;18.67;;;24.00;99.90;;;;;;4961124;28;20035;-92
2023/06/01 11:37:12;;;;;;;20.65;19.15;;;23.90;99.90;;;;;;4954682;29;20118;-92
2023/06/01 11:39:40;;;;;;;25.95;18.35;;;23.90;99.90;;;;;;4954689;28;20027;-91
2023/06/01 11:42:16;;;;;;;21.70;20.08;;;23.90;99.90;;;;;;4954629;28;20086;-92
2023/06/01 11:44:56;;;;;;;20.58;19.27;;;24.00;99.90;;;;;;4989091;28;20030;-94
2023/06/01 11:47:27;;;;;;;19.42;18.02;;;24.00;99.90;;;;;;4978117;28;20031;-92
2023/06/01 11:49:54;;;;;;;19.50;18.20;;;23.80;99.90;;;;;;4980816;28;20031;-95
2023/06/01 11:52:22;;;;;;;18.45;17.25;;;23.70;99.90;;;;;;4981052;28;20061;-92
2023/06/01 11:54:51;;;;;;;18.98;17.40;;;23.50;99.90;;;;;;4973816;28;20445;-91
2023/06/01 11:57:19;;;;;;;18.50;17.23;;;23.50;99.90;;;;;;4957943;28;20031;-93
2023/06/01 11:59:47;;;;;;;18.65;17.45;;;23.30;99.90;;;;;;4974202;28;20035;-92
2023/06/01 12:02:24;;;;;;;18.77;17.48;;;23.10;99.90;;;;;;4973902;28;20031;-92
2023/06/01 12:05:13;;;;;;;19.20;17.58;;;23.00;99.90;;;;;;4977148;28;20034;-91
2023/06/01 12:07:56;;;;;;;19.35;18.00;;;22.90;99.90;;;;;;4980630;28;20487;-91
2023/06/01 12:10:23;;;;;;;19.17;17.77;;;22.80;99.90;;;;;;4980425;28;20053;-93
2023/06/01 12:12:53;;;;;;;18.95;17.63;;;22.70;99.90;;;;;;4980352;28;20045;-92
2023/06/01 12:15:28;;;;;;;19.10;17.85;;;22.80;99.90;;;;;;4961622;28;20093;-93
2023/06/01 12:17:56;;;;;;;19.23;17.92;;;22.90;99.90;;;;;;4960956;28;20391;-94
2023/06/01 12:20:42;;;;;;;19.58;18.27;;;22.90;99.90;;;;;;4979089;28;20031;-94
2023/06/01 12:36:25;;;;;;;20.73;18.77;;;23.10;99.90;;;;;;5385153;23;20053;-94
2023/06/01 12:48:47;;;;;;;;;;;;;;;;;;;;;
2023/06/01 12:55:29;;;;;;;19.65;18.20;;;23.50;99.90;;;;;;5020116;28;20407;-94
2023/06/01 13:05:08;;;;;;;19.05;17.52;;;23.80;99.90;;;;;;4902698;29;20043;-94
2023/06/01 13:08:09;;;;;;;18.67;17.27;;;23.80;99.90;;;;;;4891920;29;20072;-93
2023/06/01 13:10:35;;;;;;;18.70;17.40;;;23.90;99.90;;;;;;4883900;29;20045;-93
2023/06/01 13:13:12;;;;;;;19.92;18.40;;;24.00;99.90;;;;;;4869642;29;20040;-95
2023/06/01 13:20:17;;;;;;;;;;;;;;;;;;;;;
2023/06/01 13:37:44;;;;;;;;;;;25.60;99.90;;;;;;5459721;23;20568;-94
2023/06/01 13:42:47;;;;;;;22.92;20.63;;;25.10;99.90;;;;;;5069806;23;20053;-92
2023/06/01 13:49:04;;;;;;;22.42;20.75;;;25.10;99.90;;;;;;5257595;23;20944;-92
2023/06/01 13:57:52;;;;;;;22.92;21.17;;;25.70;99.90;;;;;;6122586;23;20257;-93
2023/06/01 14:06:56;;;;;;;;;;;;;;;;;;;;;
2023/06/01 14:19:09;;;;;;;22.15;20.02;;;25.30;99.90;;;;;;1900016;23;20302;-92
2023/06/01 14:21:43;;;;;;;20.90;19.40;;;25.60;99.90;;;;;;4992722;28;20058;-92
2023/06/01 14:24:18;;;;;;;21.55;19.55;;;25.20;99.90;;;;;;4978586;28;20030;-94
2023/06/01 14:26:48;;;;;;;20.85;19.40;;;25.60;99.90;;;;;;4995958;28;20026;-95
2023/06/01 14:29:17;;;;;;;21.88;20.08;;;25.60;99.90;;;;;;4980186;28;20026;-92
2023/06/01 14:31:44;;;;;;;21.95;20.02;;;25.70;99.90;;;;;;4978171;28;20468;-93
2023/06/01 14:34:10;;;;;;;21.60;19.80;;;25.70;99.90;;;;;;4981495;28;20039;-93
2023/06/01 14:36:44;;;;;;;22.02;20.05;;;25.50;99.90;;;;;;4992234;28;20031;-93
2023/06/01 14:39:13;;;;;;;20.90;19.30;;;25.50;99.90;;;;;;4975724;28;20026;-94
2023/06/01 14:41:40;;;;;;;21.23;19.83;;;25.40;99.90;;;;;;4978352;28;20026;-91
2023/06/01 14:44:07;;;;;;;22.02;20.48;;;25.20;99.90;;;;;;4977424;28;20018;-93
2023/06/01 14:46:34;;;;;;;23.00;21.02;;;25.00;99.90;;;;;;4981794;28;20026;-95
2023/06/01 14:49:03;;;;;;;22.50;20.77;;;24.70;99.90;;;;;;4981751;28;20034;-92
2023/06/01 14:51:32;;;;;;;21.77;20.08;;;24.60;99.90;;;;;;4999035;28;20038;-94
2023/06/01 14:53:59;;;;;;;21.20;19.48;;;24.50;99.90;;;;;;4985110;28;20093;-92
2023/06/01 14:56:29;;;;;;;21.42;19.77;;;24.50;99.90;;;;;;5001699;28;20026;-94
2023/06/01 14:58:59;;;;;;;22.17;20.25;;;24.50;99.90;;;;;;4978659;28;20022;-92
2023/06/01 15:01:35;;;;;;;22.90;21.08;;;24.40;99.90;;;;;;4980982;28;20446;-93
2023/06/01 15:53:57;;;;;;;20.65;19.25;;;26.00;99.90;;;;;;5907318;23;20034;-92
2023/06/01 15:59:19;;;;;;;20.42;19.23;;;25.80;99.90;;;;;;5938462;23;20066;-91
2023/06/01 16:01:45;;;;;;;20.92;19.48;;;25.50;99.90;;;;;;5013781;28;20037;-92
2023/06/01 16:04:12;;;;;;;20.45;19.05;;;25.30;99.90;;;;;;5019679;28;20486;-92
2023/06/01 16:07:29;;;;;;;20.60;19.30;;;24.90;99.90;;;;;;5020336;28;20034;-93
2023/06/01 16:10:34;;;;;;;20.50;19.00;;;24.50;99.90;;;;;;4936664;29;20042;-93
2023/06/01 18:19:48;;;;;;;11.75;10.45;;;21.70;99.90;;;;;;5601354;23;19920;-94
2023/06/01 22:46:28;;;;;;;35.63;19.33;;;20.00;99.90;;;;;;5136494;23;20054;-92
2023/06/01 22:48:55;;;;;;;37.33;19.90;;;19.90;99.90;;;;;;4961606;28;20031;-91
2023/06/01 22:51:24;;;;;;;37.25;19.48;;;19.90;99.90;;;;;;4961617;28;20057;-91
2023/06/01 22:53:51;;;;;;;36.90;18.80;;;19.90;99.90;;;;;;4961652;28;20026;-91
2023/06/01 22:56:17;;;;;;;34.88;18.25;;;19.80;99.90;;;;;;4977281;28;20046;-91